Change the Weather History Date:

Friday, May 3, 2013

  Actual Average (KLOZ) Record (KLOZ)
Temperature  
Mean Temperature 65 °F 62 °F  
Max Temperature 75 °F 73 °F 87 °F (1959)
Min Temperature 55 °F 50 °F 32 °F (1961)
Degree Days  
Heating Degree Days 0 5  
Month to date heating degree days 15  
Since 1 July heating degree days 4116  
Cooling Degree Days 0 1  
Month to date cooling degree days 3  
Year to date cooling degree days 29  
Growing Degree Days 15 (Base 50)    
Moisture  
Dew Point 50 °F    
Average Humidity 57    
Maximum Humidity 82    
Minimum Humidity 38    
Precipitation  
Precipitation 0.00 in 0.16 in 2.67 in (2009)
Month to date precipitation 0.46  
Year to date precipitation 15.81  
Sea Level Pressure  
Sea Level Pressure 30.04 in    
Wind  
Wind Speed 7 mph (SE)    
Max Wind Speed 17 mph    
Max Gust Speed 25 mph    
Visibility 10 miles    
Events      
T = Trace of Precipitation, MM = Missing Value Source: NWS Daily Summary

Daily Weather History Graph

Daily Weather History Graph

Search for Another Location

Airport or City:

Trip Planner

Search our weather history database for the weather conditions in past years. The results will help you decide how hot, cold, wet, or windy it might be!

Date:

Astronomy

May. 03, 2013 Rise Set
Actual Time 6:39 AM EDT 8:29 PM EDT
Civil Twilight 6:11 AM EDT 8:57 PM EDT
Nautical Twilight 5:36 AM EDT 9:32 PM EDT
Astronomical Twilight 5:00 AM EDT 10:09 PM EDT
Moon 2:56 AM EDT (5/3) 2:29 PM EDT (5/3)
Length of Visible Light 14h 46m
Length of Day
13h 50m
Last Quarter, 37% of the Moon is Illuminated
May 3
Last Quarter
May 9
New
May 18
First Quarter
May 25
Full
May 31
Last Quarter

Hourly Weather History & Observations

Time (EDT) Temp. Dew Point Humidity Pressure Visibility Wind Dir Wind Speed Gust Speed Precip Events Conditions
12:15 AM 66.2 °F 53.6 °F 64% 30.11 in 10.0 mi SSE 6.9 mph - N/A   Overcast
12:35 AM 66.2 °F 51.8 °F 60% 30.11 in 10.0 mi SSE 8.1 mph - N/A   Scattered Clouds
12:55 AM 66.2 °F 51.8 °F 60% 30.11 in 10.0 mi SSE 8.1 mph - N/A   Clear
1:15 AM 64.4 °F 51.8 °F 64% 30.11 in 10.0 mi SSE 9.2 mph - N/A   Clear
1:35 AM 64.4 °F 51.8 °F 64% 30.10 in 10.0 mi SSE 10.4 mph - N/A   Clear
1:55 AM 62.6 °F 51.8 °F 68% 30.10 in 10.0 mi SSE 6.9 mph - N/A   Clear
2:15 AM 62.6 °F 51.8 °F 68% 30.10 in 10.0 mi SSE 6.9 mph - N/A   Clear
2:35 AM 62.6 °F 51.8 °F 68% 30.10 in 10.0 mi South 3.5 mph - N/A   Clear
2:55 AM 62.6 °F 51.8 °F 68% 30.09 in 10.0 mi SSE 5.8 mph - N/A   Clear
3:15 AM 60.8 °F 51.8 °F 72% 30.09 in 10.0 mi SE 4.6 mph - N/A   Clear
3:35 AM 59.0 °F 51.8 °F 77% 30.08 in 7.0 mi SE 3.5 mph - N/A   Clear
3:55 AM 59.0 °F 51.8 °F 77% 30.08 in 10.0 mi SE 4.6 mph - N/A   Clear
4:15 AM 57.2 °F 50.0 °F 77% 30.08 in 10.0 mi SE 4.6 mph - N/A   Clear
4:35 AM 59.0 °F 50.0 °F 72% 30.08 in 10.0 mi ESE 3.5 mph - N/A   Clear
4:55 AM 59.0 °F 50.0 °F 72% 30.08 in 10.0 mi SE 4.6 mph - N/A   Clear
5:15 AM 57.2 °F 50.0 °F 77% 30.08 in 10.0 mi SE 4.6 mph - N/A   Clear
5:35 AM 57.2 °F 50.0 °F 77% 30.08 in 10.0 mi SE 3.5 mph - N/A   Clear
6:15 AM 57.2 °F 50.0 °F 77% 30.08 in 10.0 mi SE 3.5 mph - N/A   Clear
6:35 AM 57.2 °F 50.0 °F 77% 30.08 in 10.0 mi East 3.5 mph - N/A   Scattered Clouds
6:55 AM 55.4 °F 50.0 °F 82% 30.09 in 10.0 mi Calm Calm - N/A   Scattered Clouds
7:15 AM 55.4 °F 50.0 °F 82% 30.09 in 10.0 mi ESE 3.5 mph - N/A   Clear
7:35 AM 57.2 °F 51.8 °F 82% 30.09 in 10.0 mi ESE 3.5 mph - N/A   Clear
7:55 AM 57.2 °F 51.8 °F 82% 30.10 in 10.0 mi ESE 4.6 mph - N/A   Clear
8:15 AM 59.0 °F 51.8 °F 77% 30.10 in 10.0 mi ESE 4.6 mph - N/A   Clear
8:35 AM 60.8 °F 51.8 °F 72% 30.09 in 10.0 mi ESE 4.6 mph - N/A   Clear
8:55 AM 62.6 °F 51.8 °F 68% 30.09 in 10.0 mi ESE 6.9 mph - N/A   Clear
9:15 AM 64.4 °F 53.6 °F 68% 30.09 in 10.0 mi ESE 6.9 mph - N/A   Clear
9:35 AM 64.4 °F 51.8 °F 64% 30.08 in 10.0 mi SE 9.2 mph - N/A   Clear
9:55 AM 64.4 °F 51.8 °F 64% 30.08 in 10.0 mi ESE 8.1 mph - N/A   Clear
10:15 AM 66.2 °F 53.6 °F 64% 30.08 in 10.0 mi ESE 5.8 mph - N/A   Clear
10:35 AM 68.0 °F 51.8 °F 56% 30.08 in 10.0 mi SSE 5.8 mph - N/A   Clear
10:55 AM 68.0 °F 53.6 °F 60% 30.07 in 10.0 mi ESE 6.9 mph - N/A   Clear
11:15 AM 68.0 °F 53.6 °F 60% 30.06 in 10.0 mi ESE 8.1 mph - N/A   Clear
11:35 AM 69.8 °F 55.4 °F 60% 30.06 in 10.0 mi East 4.6 mph - N/A   Clear
11:55 AM 71.6 °F 53.6 °F 53% 30.06 in 10.0 mi SSE 5.8 mph - N/A   Clear
12:15 PM 69.8 °F 53.6 °F 56% 30.06 in 10.0 mi ESE 5.8 mph - N/A   Scattered Clouds
12:35 PM 73.4 °F 55.4 °F 53% 30.05 in 10.0 mi SE 6.9 mph - N/A   Mostly Cloudy
12:55 PM 73.4 °F 53.6 °F 50% 30.04 in 10.0 mi SE 4.6 mph - N/A   Scattered Clouds
1:15 PM 71.6 °F 53.6 °F 53% 30.03 in 10.0 mi ESE 8.1 mph - N/A   Scattered Clouds
1:35 PM 71.6 °F 53.6 °F 53% 30.02 in 10.0 mi ESE 8.1 mph - N/A   Scattered Clouds
1:55 PM 73.4 °F 53.6 °F 50% 30.02 in 10.0 mi ESE 13.8 mph 19.6 mph N/A   Scattered Clouds
2:15 PM 71.6 °F 53.6 °F 53% 30.01 in 10.0 mi ESE 10.4 mph - N/A   Clear
2:35 PM 71.6 °F 51.8 °F 50% 30.01 in 10.0 mi SE 13.8 mph 17.3 mph N/A   Clear
2:55 PM 75.2 °F 53.6 °F 47% 30.00 in 10.0 mi ESE 6.9 mph 10.4 mph N/A   Clear
3:15 PM 73.4 °F 51.8 °F 47% 29.99 in 10.0 mi SE 11.5 mph 17.3 mph N/A   Clear
3:35 PM 75.2 °F 51.8 °F 44% 29.98 in 10.0 mi SSE 16.1 mph 20.7 mph N/A   Scattered Clouds
3:55 PM 75.2 °F 50.0 °F 41% 29.98 in 10.0 mi SSE 12.7 mph 19.6 mph N/A   Scattered Clouds
4:15 PM 75.2 °F 51.8 °F 44% 29.98 in 10.0 mi SE 15.0 mph 20.7 mph N/A   Clear
4:35 PM 73.4 °F 51.8 °F 47% 29.98 in 10.0 mi SE 11.5 mph - N/A   Clear
4:55 PM 73.4 °F 51.8 °F 47% 29.97 in 10.0 mi SE 15.0 mph - N/A   Clear
5:15 PM 73.4 °F 50.0 °F 44% 29.97 in 10.0 mi SE 10.4 mph 17.3 mph N/A   Clear
5:35 PM 73.4 °F 48.2 °F 41% 29.96 in 10.0 mi SE 9.2 mph 19.6 mph N/A   Clear
6:15 PM 73.4 °F 48.2 °F 41% 29.96 in 10.0 mi SE 8.1 mph - N/A   Scattered Clouds
6:35 PM 73.4 °F 46.4 °F 38% 29.96 in 10.0 mi SE 10.4 mph - N/A   Scattered Clouds
6:55 PM 71.6 °F 46.4 °F 41% 29.96 in 10.0 mi SE 11.5 mph 18.4 mph N/A   Scattered Clouds
7:15 PM 71.6 °F 46.4 °F 41% 29.96 in 10.0 mi SSE 10.4 mph - N/A   Mostly Cloudy
7:35 PM 71.6 °F 46.4 °F 41% 29.96 in 10.0 mi SE 9.2 mph 16.1 mph N/A   Scattered Clouds
7:55 PM 71.6 °F 46.4 °F 41% 29.96 in 10.0 mi SSE 13.8 mph 17.3 mph N/A   Scattered Clouds
8:15 PM 69.8 °F 46.4 °F 43% 29.96 in 10.0 mi SSE 11.5 mph 16.1 mph N/A   Scattered Clouds
8:35 PM 69.8 °F 44.6 °F 40% 29.96 in 10.0 mi SE 8.1 mph 18.4 mph N/A   Clear
8:55 PM 68.0 °F 44.6 °F 43% 29.96 in 10.0 mi SE 11.5 mph 17.3 mph N/A   Clear
9:15 PM 68.0 °F 44.6 °F 43% 29.97 in 10.0 mi SE 11.5 mph - N/A   Clear
9:35 PM 68.0 °F 44.6 °F 43% 29.97 in 10.0 mi SE 9.2 mph - N/A   Clear
9:55 PM 68.0 °F 44.6 °F 43% 29.97 in 10.0 mi SE 17.3 mph 25.3 mph N/A   Clear
10:15 PM 66.2 °F 44.6 °F 46% 29.98 in 10.0 mi SE 10.4 mph 17.3 mph N/A   Clear
10:35 PM 66.2 °F 41.0 °F 40% 29.99 in 10.0 mi SE 12.7 mph 23.0 mph N/A   Clear
11:15 PM 64.4 °F 41.0 °F 42% 29.99 in 10.0 mi SE 8.1 mph - N/A   Clear
11:35 PM 64.4 °F 41.0 °F 42% 29.98 in 10.0 mi ESE 8.1 mph - N/A   Clear
11:55 PM 62.6 °F 41.0 °F 45% 29.98 in 10.0 mi SE 10.4 mph - N/A   Clear